sensor_id;sensor_type;location;lat;lon;timestamp;P1;durP1;ratioP1;P2;durP2;ratioP2
28836;SDS011;50669;50.982;11.022;2023-03-01T00:02:11;2.83;;;2.13;;
28836;SDS011;50669;50.982;11.022;2023-03-01T00:04:39;4.13;;;2.63;;
28836;SDS011;50669;50.982;11.022;2023-03-01T00:07:05;3.13;;;2.22;;
28836;SDS011;50669;50.982;11.022;2023-03-01T00:09:31;2.97;;;1.95;;
28836;SDS011;50669;50.982;11.022;2023-03-01T00:11:57;3.03;;;2.22;;
28836;SDS011;50669;50.982;11.022;2023-03-01T00:14:23;3.72;;;2.40;;
28836;SDS011;50669;50.982;11.022;2023-03-01T00:16:50;3.03;;;2.25;;
28836;SDS011;50669;50.982;11.022;2023-03-01T00:19:19;3.63;;;2.20;;
28836;SDS011;50669;50.982;11.022;2023-03-01T00:21:46;4.18;;;2.20;;
28836;SDS011;50669;50.982;11.022;2023-03-01T00:24:14;2.75;;;1.77;;
28836;SDS011;50669;50.982;11.022;2023-03-01T00:26:40;3.63;;;2.40;;
28836;SDS011;50669;50.982;11.022;2023-03-01T00:29:06;3.17;;;2.40;;
28836;SDS011;50669;50.982;11.022;2023-03-01T00:31:32;3.38;;;2.50;;
28836;SDS011;50669;50.982;11.022;2023-03-01T00:33:59;2.65;;;2.08;;
28836;SDS011;50669;50.982;11.022;2023-03-01T00:36:34;2.75;;;1.90;;
28836;SDS011;50669;50.982;11.022;2023-03-01T00:39:02;3.45;;;2.50;;
28836;SDS011;50669;50.982;11.022;2023-03-01T00:41:29;4.75;;;2.60;;
28836;SDS011;50669;50.982;11.022;2023-03-01T00:43:55;3.17;;;2.35;;
28836;SDS011;50669;50.982;11.022;2023-03-01T00:46:24;2.65;;;1.95;;
28836;SDS011;50669;50.982;11.022;2023-03-01T00:48:52;3.15;;;2.10;;
28836;SDS011;50669;50.982;11.022;2023-03-01T00:51:25;2.75;;;2.13;;
28836;SDS011;50669;50.982;11.022;2023-03-01T00:53:54;3.15;;;2.47;;
28836;SDS011;50669;50.982;11.022;2023-03-01T00:56:22;2.67;;;2.13;;
28836;SDS011;50669;50.982;11.022;2023-03-01T00:58:48;3.70;;;2.53;;
28836;SDS011;50669;50.982;11.022;2023-03-01T01:01:18;4.20;;;2.67;;
28836;SDS011;50669;50.982;11.022;2023-03-01T01:03:50;3.22;;;2.58;;
28836;SDS011;50669;50.982;11.022;2023-03-01T01:06:21;2.88;;;2.03;;
28836;SDS011;50669;50.982;11.022;2023-03-01T01:08:47;2.80;;;2.10;;
28836;SDS011;50669;50.982;11.022;2023-03-01T01:11:13;3.40;;;2.40;;
28836;SDS011;50669;50.982;11.022;2023-03-01T01:13:39;3.47;;;2.33;;
28836;SDS011;50669;50.982;11.022;2023-03-01T01:16:06;3.08;;;2.28;;
28836;SDS011;50669;50.982;11.022;2023-03-01T01:18:35;3.83;;;2.30;;
28836;SDS011;50669;50.982;11.022;2023-03-01T01:21:07;2.88;;;2.17;;
28836;SDS011;50669;50.982;11.022;2023-03-01T01:23:34;3.17;;;2.25;;
28836;SDS011;50669;50.982;11.022;2023-03-01T01:26:03;3.97;;;2.88;;
28836;SDS011;50669;50.982;11.022;2023-03-01T01:28:30;3.42;;;2.63;;
28836;SDS011;50669;50.982;11.022;2023-03-01T01:30:56;3.30;;;2.17;;
28836;SDS011;50669;50.982;11.022;2023-03-01T01:33:21;2.95;;;2.20;;
28836;SDS011;50669;50.982;11.022;2023-03-01T01:35:47;3.63;;;2.33;;
28836;SDS011;50669;50.982;11.022;2023-03-01T01:38:13;3.08;;;2.20;;
28836;SDS011;50669;50.982;11.022;2023-03-01T01:40:45;2.60;;;2.00;;
28836;SDS011;50669;50.982;11.022;2023-03-01T01:43:23;3.20;;;2.28;;
28836;SDS011;50669;50.982;11.022;2023-03-01T01:45:52;3.95;;;2.45;;
28836;SDS011;50669;50.982;11.022;2023-03-01T01:48:22;3.30;;;2.28;;
28836;SDS011;50669;50.982;11.022;2023-03-01T01:51:05;3.25;;;2.35;;
28836;SDS011;50669;50.982;11.022;2023-03-01T01:53:38;3.42;;;2.20;;
28836;SDS011;50669;50.982;11.022;2023-03-01T01:56:07;2.65;;;2.20;;
28836;SDS011;50669;50.982;11.022;2023-03-01T01:58:36;3.17;;;2.40;;
28836;SDS011;50669;50.982;11.022;2023-03-01T02:01:03;2.88;;;2.28;;
28836;SDS011;50669;50.982;11.022;2023-03-01T02:03:30;3.05;;;2.33;;
28836;SDS011;50669;50.982;11.022;2023-03-01T02:06:03;2.63;;;2.20;;
28836;SDS011;50669;50.982;11.022;2023-03-01T02:08:37;3.10;;;2.25;;
28836;SDS011;50669;50.982;11.022;2023-03-01T02:11:06;3.65;;;2.65;;
28836;SDS011;50669;50.982;11.022;2023-03-01T02:13:33;2.63;;;2.33;;
28836;SDS011;50669;50.982;11.022;2023-03-01T02:16:02;3.42;;;2.33;;
28836;SDS011;50669;50.982;11.022;2023-03-01T02:18:36;3.35;;;2.35;;
28836;SDS011;50669;50.982;11.022;2023-03-01T02:23:40;3.67;;;2.63;;
28836;SDS011;50669;50.982;11.022;2023-03-01T02:26:08;2.58;;;2.15;;
28836;SDS011;50669;50.982;11.022;2023-03-01T02:28:47;2.75;;;2.38;;
28836;SDS011;50669;50.982;11.022;2023-03-01T02:31:14;3.97;;;2.70;;
28836;SDS011;50669;50.982;11.022;2023-03-01T02:34:03;3.20;;;2.28;;
28836;SDS011;50669;50.982;11.022;2023-03-01T02:36:37;3.38;;;2.45;;
28836;SDS011;50669;50.982;11.022;2023-03-01T02:39:08;3.15;;;2.22;;
28836;SDS011;50669;50.982;11.022;2023-03-01T02:41:42;3.13;;;2.28;;
28836;SDS011;50669;50.982;11.022;2023-03-01T02:44:12;2.95;;;2.33;;
28836;SDS011;50669;50.982;11.022;2023-03-01T02:46:45;3.28;;;2.50;;
28836;SDS011;50669;50.982;11.022;2023-03-01T02:49:21;2.67;;;2.08;;
28836;SDS011;50669;50.982;11.022;2023-03-01T02:56:46;3.38;;;2.30;;
28836;SDS011;50669;50.982;11.022;2023-03-01T02:59:16;3.15;;;2.53;;
28836;SDS011;50669;50.982;11.022;2023-03-01T03:01:44;2.92;;;2.33;;
28836;SDS011;50669;50.982;11.022;2023-03-01T03:04:13;3.13;;;2.50;;
28836;SDS011;50669;50.982;11.022;2023-03-01T03:06:42;3.38;;;2.60;;
28836;SDS011;50669;50.982;11.022;2023-03-01T03:09:16;3.92;;;2.38;;
28836;SDS011;50669;50.982;11.022;2023-03-01T03:11:45;3.17;;;2.33;;
28836;SDS011;50669;50.982;11.022;2023-03-01T03:14:12;3.38;;;2.53;;
28836;SDS011;50669;50.982;11.022;2023-03-01T03:16:43;3.17;;;2.10;;
28836;SDS011;50669;50.982;11.022;2023-03-01T03:19:13;3.35;;;2.22;;
28836;SDS011;50669;50.982;11.022;2023-03-01T03:21:39;2.70;;;2.42;;
28836;SDS011;50669;50.982;11.022;2023-03-01T03:24:05;3.33;;;2.60;;
28836;SDS011;50669;50.982;11.022;2023-03-01T03:26:33;3.00;;;2.50;;
28836;SDS011;50669;50.982;11.022;2023-03-01T03:29:01;2.72;;;2.40;;
28836;SDS011;50669;50.982;11.022;2023-03-01T03:31:27;3.40;;;2.50;;
28836;SDS011;50669;50.982;11.022;2023-03-01T03:33:53;2.65;;;2.45;;
28836;SDS011;50669;50.982;11.022;2023-03-01T03:36:20;3.72;;;2.60;;
28836;SDS011;50669;50.982;11.022;2023-03-01T03:38:47;3.40;;;2.47;;
28836;SDS011;50669;50.982;11.022;2023-03-01T03:41:16;2.60;;;2.40;;
28836;SDS011;50669;50.982;11.022;2023-03-01T03:43:42;3.05;;;2.25;;
28836;SDS011;50669;50.982;11.022;2023-03-01T03:46:11;3.85;;;2.58;;
28836;SDS011;50669;50.982;11.022;2023-03-01T03:48:43;3.53;;;2.70;;
28836;SDS011;50669;50.982;11.022;2023-03-01T03:51:13;3.17;;;2.45;;
28836;SDS011;50669;50.982;11.022;2023-03-01T03:53:40;3.10;;;2.70;;
28836;SDS011;50669;50.982;11.022;2023-03-01T03:56:06;3.63;;;2.50;;
28836;SDS011;50669;50.982;11.022;2023-03-01T03:58:32;2.75;;;2.17;;
28836;SDS011;50669;50.982;11.022;2023-03-01T04:00:58;3.00;;;2.15;;
28836;SDS011;50669;50.982;11.022;2023-03-01T04:03:26;2.60;;;2.25;;
28836;SDS011;50669;50.982;11.022;2023-03-01T04:05:53;2.88;;;2.22;;
28836;SDS011;50669;50.982;11.022;2023-03-01T04:08:21;2.97;;;2.30;;
28836;SDS011;50669;50.982;11.022;2023-03-01T04:10:56;3.40;;;2.33;;
28836;SDS011;50669;50.982;11.022;2023-03-01T04:13:46;2.80;;;2.50;;
28836;SDS011;50669;50.982;11.022;2023-03-01T04:16:11;2.63;;;2.28;;
28836;SDS011;50669;50.982;11.022;2023-03-01T04:18:39;3.08;;;2.17;;
28836;SDS011;50669;50.982;11.022;2023-03-01T04:21:07;4.15;;;2.67;;
28836;SDS011;50669;50.982;11.022;2023-03-01T04:23:33;3.67;;;2.97;;
28836;SDS011;50669;50.982;11.022;2023-03-01T04:25:59;3.38;;;2.47;;
28836;SDS011;50669;50.982;11.022;2023-03-01T04:28:31;3.38;;;2.70;;
28836;SDS011;50669;50.982;11.022;2023-03-01T04:31:03;3.10;;;2.30;;
28836;SDS011;50669;50.982;11.022;2023-03-01T04:33:45;3.05;;;2.50;;
28836;SDS011;50669;50.982;11.022;2023-03-01T04:36:12;2.92;;;2.45;;
28836;SDS011;50669;50.982;11.022;2023-03-01T04:38:39;3.58;;;2.60;;
28836;SDS011;50669;50.982;11.022;2023-03-01T04:41:12;2.78;;;2.45;;
28836;SDS011;50669;50.982;11.022;2023-03-01T04:43:39;2.95;;;2.40;;
28836;SDS011;50669;50.982;11.022;2023-03-01T04:46:08;3.53;;;2.83;;
28836;SDS011;50669;50.982;11.022;2023-03-01T04:48:40;4.15;;;2.72;;
28836;SDS011;50669;50.982;11.022;2023-03-01T04:51:09;2.88;;;2.28;;
28836;SDS011;50669;50.982;11.022;2023-03-01T04:53:38;2.83;;;2.55;;
28836;SDS011;50669;50.982;11.022;2023-03-01T04:56:04;3.42;;;2.60;;
28836;SDS011;50669;50.982;11.022;2023-03-01T04:58:31;3.10;;;2.40;;
28836;SDS011;50669;50.982;11.022;2023-03-01T05:00:57;3.72;;;2.97;;
28836;SDS011;50669;50.982;11.022;2023-03-01T05:03:25;4.13;;;2.80;;
28836;SDS011;50669;50.982;11.022;2023-03-01T05:05:51;3.97;;;2.45;;
28836;SDS011;50669;50.982;11.022;2023-03-01T05:08:17;2.97;;;2.28;;
28836;SDS011;50669;50.982;11.022;2023-03-01T05:10:49;3.58;;;2.63;;
28836;SDS011;50669;50.982;11.022;2023-03-01T05:13:17;3.55;;;2.67;;
28836;SDS011;50669;50.982;11.022;2023-03-01T05:15:47;3.83;;;2.60;;
28836;SDS011;50669;50.982;11.022;2023-03-01T05:18:23;3.60;;;2.67;;
28836;SDS011;50669;50.982;11.022;2023-03-01T05:20:53;3.40;;;2.85;;
28836;SDS011;50669;50.982;11.022;2023-03-01T05:23:25;3.15;;;2.63;;
28836;SDS011;50669;50.982;11.022;2023-03-01T05:25:51;3.45;;;2.63;;
28836;SDS011;50669;50.982;11.022;2023-03-01T05:28:19;3.60;;;2.55;;
28836;SDS011;50669;50.982;11.022;2023-03-01T05:30:45;3.35;;;2.50;;
28836;SDS011;50669;50.982;11.022;2023-03-01T05:33:11;3.55;;;2.50;;
28836;SDS011;50669;50.982;11.022;2023-03-01T05:35:41;3.90;;;2.80;;
28836;SDS011;50669;50.982;11.022;2023-03-01T05:38:08;3.75;;;2.85;;
28836;SDS011;50669;50.982;11.022;2023-03-01T05:40:38;3.72;;;2.90;;
28836;SDS011;50669;50.982;11.022;2023-03-01T05:43:04;3.15;;;2.65;;
28836;SDS011;50669;50.982;11.022;2023-03-01T05:45:30;3.28;;;2.55;;
28836;SDS011;50669;50.982;11.022;2023-03-01T05:48:02;3.00;;;2.28;;
28836;SDS011;50669;50.982;11.022;2023-03-01T05:50:38;2.60;;;2.25;;
28836;SDS011;50669;50.982;11.022;2023-03-01T05:53:17;3.55;;;2.78;;
28836;SDS011;50669;50.982;11.022;2023-03-01T05:55:46;3.80;;;2.88;;
28836;SDS011;50669;50.982;11.022;2023-03-01T05:58:16;3.35;;;2.53;;
28836;SDS011;50669;50.982;11.022;2023-03-01T06:00:45;3.65;;;2.67;;
28836;SDS011;50669;50.982;11.022;2023-03-01T06:03:13;3.08;;;2.63;;
28836;SDS011;50669;50.982;11.022;2023-03-01T06:05:40;3.15;;;2.60;;
28836;SDS011;50669;50.982;11.022;2023-03-01T06:08:06;4.13;;;3.03;;
28836;SDS011;50669;50.982;11.022;2023-03-01T06:10:34;3.03;;;2.60;;
28836;SDS011;50669;50.982;11.022;2023-03-01T06:13:00;3.58;;;2.58;;
28836;SDS011;50669;50.982;11.022;2023-03-01T06:15:25;2.50;;;2.30;;
28836;SDS011;50669;50.982;11.022;2023-03-01T06:17:53;3.30;;;2.58;;
28836;SDS011;50669;50.982;11.022;2023-03-01T06:20:23;4.72;;;2.78;;
28836;SDS011;50669;50.982;11.022;2023-03-01T06:22:50;3.97;;;2.88;;
28836;SDS011;50669;50.982;11.022;2023-03-01T06:25:17;3.88;;;2.83;;
28836;SDS011;50669;50.982;11.022;2023-03-01T06:27:44;4.03;;;2.80;;
28836;SDS011;50669;50.982;11.022;2023-03-01T06:32:43;3.67;;;2.83;;
28836;SDS011;50669;50.982;11.022;2023-03-01T06:35:09;3.90;;;2.90;;
28836;SDS011;50669;50.982;11.022;2023-03-01T06:37:39;3.45;;;2.55;;
28836;SDS011;50669;50.982;11.022;2023-03-01T06:40:06;3.63;;;2.88;;
28836;SDS011;50669;50.982;11.022;2023-03-01T06:42:37;3.30;;;2.70;;
28836;SDS011;50669;50.982;11.022;2023-03-01T06:45:04;3.88;;;3.03;;
28836;SDS011;50669;50.982;11.022;2023-03-01T06:47:31;3.17;;;2.55;;
28836;SDS011;50669;50.982;11.022;2023-03-01T06:49:58;2.75;;;2.35;;
28836;SDS011;50669;50.982;11.022;2023-03-01T06:52:24;3.40;;;2.50;;
28836;SDS011;50669;50.982;11.022;2023-03-01T06:54:50;3.38;;;2.55;;
28836;SDS011;50669;50.982;11.022;2023-03-01T06:57:16;2.90;;;2.55;;
28836;SDS011;50669;50.982;11.022;2023-03-01T06:59:42;3.38;;;2.58;;
28836;SDS011;50669;50.982;11.022;2023-03-01T07:02:09;3.80;;;2.92;;
28836;SDS011;50669;50.982;11.022;2023-03-01T07:04:36;3.60;;;3.05;;
28836;SDS011;50669;50.982;11.022;2023-03-01T07:07:02;3.78;;;2.90;;
28836;SDS011;50669;50.982;11.022;2023-03-01T07:09:30;3.88;;;2.92;;
28836;SDS011;50669;50.982;11.022;2023-03-01T07:11:56;3.40;;;2.78;;
28836;SDS011;50669;50.982;11.022;2023-03-01T07:14:22;3.78;;;2.70;;
28836;SDS011;50669;50.982;11.022;2023-03-01T07:16:49;3.97;;;2.75;;
28836;SDS011;50669;50.982;11.022;2023-03-01T07:19:15;4.00;;;2.88;;
28836;SDS011;50669;50.982;11.022;2023-03-01T07:21:43;3.97;;;3.05;;
28836;SDS011;50669;50.982;11.022;2023-03-01T07:24:09;4.10;;;2.72;;
28836;SDS011;50669;50.982;11.022;2023-03-01T07:26:37;4.00;;;2.60;;
28836;SDS011;50669;50.982;11.022;2023-03-01T07:29:06;2.90;;;2.50;;
28836;SDS011;50669;50.982;11.022;2023-03-01T07:31:37;4.05;;;3.20;;
28836;SDS011;50669;50.982;11.022;2023-03-01T07:34:07;3.35;;;2.97;;
28836;SDS011;50669;50.982;11.022;2023-03-01T07:36:33;4.90;;;3.10;;
28836;SDS011;50669;50.982;11.022;2023-03-01T07:39:01;3.13;;;2.42;;
28836;SDS011;50669;50.982;11.022;2023-03-01T07:41:28;2.90;;;2.60;;
28836;SDS011;50669;50.982;11.022;2023-03-01T07:43:54;3.95;;;3.17;;
28836;SDS011;50669;50.982;11.022;2023-03-01T07:46:20;4.35;;;3.35;;
28836;SDS011;50669;50.982;11.022;2023-03-01T07:48:45;4.07;;;3.10;;
28836;SDS011;50669;50.982;11.022;2023-03-01T07:51:13;4.38;;;3.28;;
28836;SDS011;50669;50.982;11.022;2023-03-01T07:53:39;4.07;;;3.28;;
28836;SDS011;50669;50.982;11.022;2023-03-01T07:56:14;4.07;;;3.00;;
28836;SDS011;50669;50.982;11.022;2023-03-01T07:58:42;4.28;;;3.47;;
28836;SDS011;50669;50.982;11.022;2023-03-01T08:01:14;5.30;;;3.45;;
28836;SDS011;50669;50.982;11.022;2023-03-01T08:03:41;3.90;;;2.63;;
28836;SDS011;50669;50.982;11.022;2023-03-01T08:06:09;3.95;;;3.35;;
28836;SDS011;50669;50.982;11.022;2023-03-01T08:08:35;4.28;;;3.65;;
28836;SDS011;50669;50.982;11.022;2023-03-01T08:11:02;4.10;;;3.20;;
28836;SDS011;50669;50.982;11.022;2023-03-01T08:13:29;3.72;;;3.30;;
28836;SDS011;50669;50.982;11.022;2023-03-01T08:16:00;4.85;;;3.85;;
28836;SDS011;50669;50.982;11.022;2023-03-01T08:18:30;4.95;;;4.00;;
28836;SDS011;50669;50.982;11.022;2023-03-01T08:21:08;3.95;;;3.30;;
28836;SDS011;50669;50.982;11.022;2023-03-01T08:23:39;4.60;;;3.42;;
28836;SDS011;50669;50.982;11.022;2023-03-01T08:26:10;4.20;;;3.28;;
28836;SDS011;50669;50.982;11.022;2023-03-01T08:28:41;5.03;;;3.80;;
28836;SDS011;50669;50.982;11.022;2023-03-01T08:31:23;5.82;;;3.92;;
28836;SDS011;50669;50.982;11.022;2023-03-01T08:33:57;6.13;;;4.05;;
28836;SDS011;50669;50.982;11.022;2023-03-01T08:36:26;5.00;;;3.90;;
28836;SDS011;50669;50.982;11.022;2023-03-01T08:38:53;4.80;;;3.63;;
28836;SDS011;50669;50.982;11.022;2023-03-01T08:41:19;3.85;;;3.45;;
28836;SDS011;50669;50.982;11.022;2023-03-01T08:43:45;5.10;;;3.65;;
28836;SDS011;50669;50.982;11.022;2023-03-01T08:46:15;7.35;;;4.07;;
28836;SDS011;50669;50.982;11.022;2023-03-01T08:48:41;6.53;;;4.57;;
28836;SDS011;50669;50.982;11.022;2023-03-01T08:51:17;4.63;;;3.63;;
28836;SDS011;50669;50.982;11.022;2023-03-01T08:53:44;5.93;;;3.80;;
28836;SDS011;50669;50.982;11.022;2023-03-01T08:56:11;4.57;;;3.80;;
28836;SDS011;50669;50.982;11.022;2023-03-01T08:58:38;5.00;;;3.90;;
28836;SDS011;50669;50.982;11.022;2023-03-01T09:01:07;5.07;;;3.88;;
28836;SDS011;50669;50.982;11.022;2023-03-01T09:03:33;5.43;;;4.32;;
28836;SDS011;50669;50.982;11.022;2023-03-01T09:06:02;5.85;;;4.05;;
28836;SDS011;50669;50.982;11.022;2023-03-01T09:08:29;8.32;;;4.05;;
28836;SDS011;50669;50.982;11.022;2023-03-01T09:10:55;4.50;;;3.70;;
28836;SDS011;50669;50.982;11.022;2023-03-01T09:13:21;4.57;;;3.75;;
28836;SDS011;50669;50.982;11.022;2023-03-01T09:15:52;5.78;;;4.03;;
28836;SDS011;50669;50.982;11.022;2023-03-01T09:18:19;5.20;;;3.92;;
28836;SDS011;50669;50.982;11.022;2023-03-01T09:20:45;5.50;;;3.95;;
28836;SDS011;50669;50.982;11.022;2023-03-01T09:23:13;4.95;;;3.72;;
28836;SDS011;50669;50.982;11.022;2023-03-01T09:25:42;5.47;;;3.55;;
28836;SDS011;50669;50.982;11.022;2023-03-01T09:28:08;5.57;;;3.97;;
28836;SDS011;50669;50.982;11.022;2023-03-01T09:30:35;4.38;;;3.85;;
28836;SDS011;50669;50.982;11.022;2023-03-01T09:33:01;6.05;;;4.25;;
28836;SDS011;50669;50.982;11.022;2023-03-01T09:35:29;5.65;;;4.22;;
28836;SDS011;50669;50.982;11.022;2023-03-01T09:37:55;5.38;;;4.28;;
28836;SDS011;50669;50.982;11.022;2023-03-01T09:40:21;5.28;;;3.70;;
28836;SDS011;50669;50.982;11.022;2023-03-01T09:45:59;7.53;;;4.30;;
28836;SDS011;50669;50.982;11.022;2023-03-01T09:48:30;3.65;;;3.20;;
28836;SDS011;50669;50.982;11.022;2023-03-01T09:51:12;5.68;;;4.05;;
28836;SDS011;50669;50.982;11.022;2023-03-01T09:53:46;5.07;;;4.05;;
28836;SDS011;50669;50.982;11.022;2023-03-01T09:58:58;4.45;;;3.50;;
28836;SDS011;50669;50.982;11.022;2023-03-01T10:04:27;5.85;;;4.10;;
28836;SDS011;50669;50.982;11.022;2023-03-01T10:07:20;5.57;;;4.20;;
28836;SDS011;50669;50.982;11.022;2023-03-01T10:10:06;4.75;;;3.80;;
28836;SDS011;50669;50.982;11.022;2023-03-01T10:12:37;6.13;;;4.05;;
28836;SDS011;50669;50.982;11.022;2023-03-01T10:15:20;5.43;;;4.18;;
28836;SDS011;50669;50.982;11.022;2023-03-01T10:18:02;5.40;;;4.15;;
28836;SDS011;50669;50.982;11.022;2023-03-01T10:20:47;6.85;;;4.75;;
28836;SDS011;50669;50.982;11.022;2023-03-01T10:23:16;5.83;;;4.30;;
28836;SDS011;50669;50.982;11.022;2023-03-01T10:31:13;5.43;;;4.00;;
28836;SDS011;50669;50.982;11.022;2023-03-01T10:33:44;6.10;;;4.00;;
28836;SDS011;50669;50.982;11.022;2023-03-01T10:36:09;5.70;;;4.32;;
28836;SDS011;50669;50.982;11.022;2023-03-01T10:38:54;5.95;;;4.00;;
28836;SDS011;50669;50.982;11.022;2023-03-01T10:41:23;5.28;;;4.78;;
28836;SDS011;50669;50.982;11.022;2023-03-01T10:43:56;4.93;;;4.43;;
28836;SDS011;50669;50.982;11.022;2023-03-01T10:46:32;6.20;;;4.50;;
28836;SDS011;50669;50.982;11.022;2023-03-01T10:49:20;6.00;;;4.40;;
28836;SDS011;50669;50.982;11.022;2023-03-01T10:51:51;6.50;;;4.20;;
28836;SDS011;50669;50.982;11.022;2023-03-01T10:54:31;6.15;;;4.38;;
28836;SDS011;50669;50.982;11.022;2023-03-01T10:57:02;5.97;;;4.47;;
28836;SDS011;50669;50.982;11.022;2023-03-01T11:04:27;6.40;;;4.20;;
28836;SDS011;50669;50.982;11.022;2023-03-01T11:07:00;6.45;;;4.53;;
28836;SDS011;50669;50.982;11.022;2023-03-01T11:09:32;6.00;;;4.85;;
28836;SDS011;50669;50.982;11.022;2023-03-01T11:12:13;7.38;;;4.80;;
28836;SDS011;50669;50.982;11.022;2023-03-01T11:14:55;6.93;;;4.88;;
28836;SDS011;50669;50.982;11.022;2023-03-01T11:17:31;5.75;;;4.22;;
28836;SDS011;50669;50.982;11.022;2023-03-01T11:22:45;6.57;;;4.68;;
28836;SDS011;50669;50.982;11.022;2023-03-01T11:25:17;5.78;;;4.50;;
28836;SDS011;50669;50.982;11.022;2023-03-01T11:27:50;6.75;;;4.78;;
28836;SDS011;50669;50.982;11.022;2023-03-01T11:30:25;6.85;;;4.78;;
28836;SDS011;50669;50.982;11.022;2023-03-01T11:35:34;5.68;;;4.35;;
28836;SDS011;50669;50.982;11.022;2023-03-01T11:40:44;6.53;;;4.57;;
28836;SDS011;50669;50.982;11.022;2023-03-01T11:43:23;5.90;;;4.50;;
28836;SDS011;50669;50.982;11.022;2023-03-01T11:51:17;5.38;;;4.47;;
28836;SDS011;50669;50.982;11.022;2023-03-01T11:53:54;5.32;;;4.63;;
28836;SDS011;50669;50.982;11.022;2023-03-01T11:56:43;7.10;;;4.63;;
28836;SDS011;50669;50.982;11.022;2023-03-01T12:17:04;5.50;;;4.35;;
28836;SDS011;50669;50.982;11.022;2023-03-01T12:25:18;6.38;;;4.75;;
28836;SDS011;50669;50.982;11.022;2023-03-01T12:37:17;6.65;;;4.32;;
28836;SDS011;50669;50.982;11.022;2023-03-01T12:53:07;7.10;;;5.30;;
28836;SDS011;50669;50.982;11.022;2023-03-01T12:55:48;6.25;;;5.15;;
28836;SDS011;50669;50.982;11.022;2023-03-01T13:06:50;6.75;;;5.10;;
28836;SDS011;50669;50.982;11.022;2023-03-01T13:09:27;5.68;;;4.68;;
28836;SDS011;50669;50.982;11.022;2023-03-01T13:11:55;6.45;;;4.72;;
28836;SDS011;50669;50.982;11.022;2023-03-01T13:16:51;5.72;;;4.82;;
28836;SDS011;50669;50.982;11.022;2023-03-01T13:19:18;6.75;;;5.05;;
28836;SDS011;50669;50.982;11.022;2023-03-01T13:21:51;5.43;;;4.65;;
28836;SDS011;50669;50.982;11.022;2023-03-01T13:24:25;7.72;;;4.97;;
28836;SDS011;50669;50.982;11.022;2023-03-01T13:29:46;6.10;;;5.07;;
28836;SDS011;50669;50.982;11.022;2023-03-01T13:32:28;8.25;;;5.20;;
28836;SDS011;50669;50.982;11.022;2023-03-01T13:35:00;7.78;;;5.28;;
28836;SDS011;50669;50.982;11.022;2023-03-01T13:37:48;6.43;;;5.00;;
28836;SDS011;50669;50.982;11.022;2023-03-01T13:42:44;7.47;;;4.90;;
28836;SDS011;50669;50.982;11.022;2023-03-01T13:47:51;8.73;;;5.53;;
28836;SDS011;50669;50.982;11.022;2023-03-01T13:50:21;7.85;;;4.90;;
28836;SDS011;50669;50.982;11.022;2023-03-01T13:55:45;5.60;;;4.15;;
28836;SDS011;50669;50.982;11.022;2023-03-01T13:58:19;6.63;;;4.68;;
28836;SDS011;50669;50.982;11.022;2023-03-01T14:00:57;5.65;;;4.78;;
28836;SDS011;50669;50.982;11.022;2023-03-01T14:03:23;9.32;;;5.13;;
28836;SDS011;50669;50.982;11.022;2023-03-01T14:08:31;7.05;;;4.97;;
28836;SDS011;50669;50.982;11.022;2023-03-01T14:11:02;7.40;;;4.93;;
28836;SDS011;50669;50.982;11.022;2023-03-01T14:13:43;5.28;;;4.50;;
28836;SDS011;50669;50.982;11.022;2023-03-01T14:19:28;6.00;;;4.93;;
28836;SDS011;50669;50.982;11.022;2023-03-01T14:22:02;5.43;;;4.38;;
28836;SDS011;50669;50.982;11.022;2023-03-01T14:26:57;5.70;;;4.40;;
28836;SDS011;50669;50.982;11.022;2023-03-01T14:29:33;7.22;;;4.68;;
28836;SDS011;50669;50.982;11.022;2023-03-01T14:32:18;6.05;;;4.60;;
28836;SDS011;50669;50.982;11.022;2023-03-01T14:34:48;7.63;;;5.05;;
28836;SDS011;50669;50.982;11.022;2023-03-01T14:42:14;6.30;;;5.00;;
28836;SDS011;50669;50.982;11.022;2023-03-01T14:44:42;6.65;;;5.00;;
28836;SDS011;50669;50.982;11.022;2023-03-01T14:47:12;6.15;;;4.65;;
28836;SDS011;50669;50.982;11.022;2023-03-01T14:49:47;10.20;;;4.88;;
28836;SDS011;50669;50.982;11.022;2023-03-01T14:52:19;6.20;;;4.95;;
28836;SDS011;50669;50.982;11.022;2023-03-01T14:54:50;7.28;;;4.97;;
28836;SDS011;50669;50.982;11.022;2023-03-01T14:57:24;6.90;;;5.15;;
28836;SDS011;50669;50.982;11.022;2023-03-01T14:59:54;8.70;;;5.85;;
28836;SDS011;50669;50.982;11.022;2023-03-01T15:02:23;6.85;;;5.15;;
28836;SDS011;50669;50.982;11.022;2023-03-01T15:04:54;9.70;;;5.32;;
28836;SDS011;50669;50.982;11.022;2023-03-01T15:07:26;8.48;;;5.88;;
28836;SDS011;50669;50.982;11.022;2023-03-01T15:09:55;7.25;;;4.95;;
28836;SDS011;50669;50.982;11.022;2023-03-01T15:12:40;7.90;;;5.65;;
28836;SDS011;50669;50.982;11.022;2023-03-01T15:15:23;7.55;;;5.75;;
28836;SDS011;50669;50.982;11.022;2023-03-01T15:17:58;7.40;;;5.63;;
28836;SDS011;50669;50.982;11.022;2023-03-01T15:20:27;6.38;;;5.20;;
28836;SDS011;50669;50.982;11.022;2023-03-01T15:22:55;7.63;;;5.20;;
28836;SDS011;50669;50.982;11.022;2023-03-01T15:25:23;7.18;;;5.10;;
28836;SDS011;50669;50.982;11.022;2023-03-01T15:27:51;6.90;;;5.43;;
28836;SDS011;50669;50.982;11.022;2023-03-01T15:33:15;6.57;;;5.15;;
28836;SDS011;50669;50.982;11.022;2023-03-01T15:35:44;6.20;;;4.88;;
28836;SDS011;50669;50.982;11.022;2023-03-01T15:40:57;6.05;;;4.57;;
28836;SDS011;50669;50.982;11.022;2023-03-01T15:43:46;6.95;;;5.10;;
28836;SDS011;50669;50.982;11.022;2023-03-01T15:48:52;7.32;;;5.20;;
28836;SDS011;50669;50.982;11.022;2023-03-01T15:51:31;7.72;;;5.15;;
28836;SDS011;50669;50.982;11.022;2023-03-01T15:53:58;7.88;;;5.43;;
28836;SDS011;50669;50.982;11.022;2023-03-01T15:56:25;7.22;;;5.63;;
28836;SDS011;50669;50.982;11.022;2023-03-01T15:58:51;8.02;;;5.60;;
28836;SDS011;50669;50.982;11.022;2023-03-01T16:01:17;7.78;;;5.40;;
28836;SDS011;50669;50.982;11.022;2023-03-01T16:03:45;8.25;;;5.45;;
28836;SDS011;50669;50.982;11.022;2023-03-01T16:06:11;9.57;;;5.72;;
28836;SDS011;50669;50.982;11.022;2023-03-01T16:08:37;9.68;;;5.70;;
28836;SDS011;50669;50.982;11.022;2023-03-01T16:11:04;6.22;;;5.18;;
28836;SDS011;50669;50.982;11.022;2023-03-01T16:13:36;7.20;;;5.40;;
28836;SDS011;50669;50.982;11.022;2023-03-01T16:16:02;8.73;;;5.53;;
28836;SDS011;50669;50.982;11.022;2023-03-01T16:18:28;7.10;;;5.28;;
28836;SDS011;50669;50.982;11.022;2023-03-01T16:20:53;6.30;;;5.32;;
28836;SDS011;50669;50.982;11.022;2023-03-01T16:23:21;7.93;;;5.45;;
28836;SDS011;50669;50.982;11.022;2023-03-01T16:25:50;6.25;;;5.20;;
28836;SDS011;50669;50.982;11.022;2023-03-01T16:28:15;7.82;;;5.10;;
28836;SDS011;50669;50.982;11.022;2023-03-01T16:30:44;7.15;;;5.00;;
28836;SDS011;50669;50.982;11.022;2023-03-01T16:33:12;7.13;;;5.28;;
28836;SDS011;50669;50.982;11.022;2023-03-01T16:35:40;6.93;;;5.25;;
28836;SDS011;50669;50.982;11.022;2023-03-01T16:38:05;8.32;;;5.45;;
28836;SDS011;50669;50.982;11.022;2023-03-01T16:40:36;6.78;;;5.35;;
28836;SDS011;50669;50.982;11.022;2023-03-01T16:43:02;6.55;;;4.75;;
28836;SDS011;50669;50.982;11.022;2023-03-01T16:45:32;6.25;;;4.88;;
28836;SDS011;50669;50.982;11.022;2023-03-01T16:48:00;8.30;;;5.10;;
28836;SDS011;50669;50.982;11.022;2023-03-01T16:50:26;8.45;;;5.70;;
28836;SDS011;50669;50.982;11.022;2023-03-01T16:52:52;7.43;;;5.32;;
28836;SDS011;50669;50.982;11.022;2023-03-01T16:55:18;7.47;;;5.57;;
28836;SDS011;50669;50.982;11.022;2023-03-01T16:57:46;7.72;;;5.28;;
28836;SDS011;50669;50.982;11.022;2023-03-01T17:00:16;8.35;;;5.75;;
28836;SDS011;50669;50.982;11.022;2023-03-01T17:02:42;6.45;;;5.30;;